This is the latest recevied weather packets stored in our database for station/object DO2HN-12. If no packets are shown the sender has not sent any weather packets the latest 1 day(s).
| Time | Temp. | Humidity | Pressure | Rain* | Wind** | Luminosity | Snow |
|---|---|---|---|---|---|---|---|
| 1778095188 | 17.22° C | 67% | 1008.1 hPa | - | - | - | - |
| 1778094287 | 17.22° C | 67% | 1007.6 hPa | - | - | - | - |
| 1778093386 | 18.33° C | 65% | 1007.5 hPa | - | - | - | - |
| 1778089783 | 19.44° C | 59% | 1007 hPa | - | - | - | - |
| 1778088882 | 20° C | 58% | 1006.7 hPa | - | - | - | - |
| 1778084378 | 26.11° C | 40% | 1006.5 hPa | - | - | - | - |
| 1778083477 | 25° C | 43% | 1006.8 hPa | - | - | - | - |
| 1778079874 | 25° C | 41% | 1007 hPa | - | - | - | - |
| 1778078973 | 25.56° C | 40% | 1007.3 hPa | - | - | - | - |
| 1778075370 | 24.44° C | 42% | 1007.6 hPa | - | - | - | - |
| 1778073647 | 24.44° C | 43% | 1007.7 hPa | - | - | - | - |
| 1778070044 | 22.78° C | 48% | 1008.1 hPa | - | - | - | - |
| 1778069143 | 22.22° C | 50% | 1008.2 hPa | - | - | - | - |
| 1778068242 | 21.67° C | 51% | 1008.1 hPa | - | - | - | - |
| 1778065540 | 20.56° C | 56% | 1008.3 hPa | - | - | - | - |
| 1778064639 | 20° C | 58% | 1008.3 hPa | - | - | - | - |
| 1778063738 | 20° C | 59% | 1008.4 hPa | - | - | - | - |
| 1778062837 | 19.44° C | 60% | 1008.4 hPa | - | - | - | - |
| 1778061036 | 18.33° C | 63% | 1008.5 hPa | - | - | - | - |
| 1778060135 | 18.89° C | 61% | 1008.4 hPa | - | - | - | - |
| 1778059234 | 18.89° C | 61% | 1008.3 hPa | - | - | - | - |
| 1778057432 | 18.33° C | 63% | 1008.1 hPa | - | - | - | - |
| 1778056532 | 17.78° C | 65% | 1007.9 hPa | - | - | - | - |
| 1778052928 | 16.67° C | 68% | 1007.9 hPa | - | - | - | - |
| 1778052027 | 16.11° C | 69% | 1007.9 hPa | - | - | - | - |
* Rain since midnight (hover to see other rain measurements)
** Current wind speed in m/s (hover to see current wind gust speed)